Time;durP1;ratioP1;P1;durP2;ratioP2;P2;SDS_P1;SDS_P2;PMS_P1;PMS_P2;Temp;Humidity;BMP_temperature;BMP_pressure;BME280_temperature;BME280_humidity;BME280_pressure;Samples;Min_cycle;Max_cycle;Signal;HPM_P1;HPM_P2
2021/09/24 00:01:44;;;;;;;22.10;10.70;;;;;;;;;;5071471;28;20748;-50
2021/09/24 00:04:12;;;;;;;20.83;13.13;;;;;;;;;;5071860;28;20419;-52
2021/09/24 00:06:41;;;;;;;18.97;12.83;;;;;;;;;;5072166;28;20751;-49
2021/09/24 00:09:07;;;;;;;16.77;12.83;;;;;;;;;;5071605;28;20761;-52
2021/09/24 00:11:33;;;;;;;18.73;12.80;;;;;;;;;;5071378;28;20452;-51
2021/09/24 00:13:59;;;;;;;18.23;14.23;;;;;;;;;;5071709;28;20908;-52
2021/09/24 00:16:25;;;;;;;18.67;13.40;;;;;;;;;;5071519;28;20412;-52
2021/09/24 00:18:51;;;;;;;17.77;13.40;;;;;;;;;;5071534;28;20460;-51
2021/09/24 00:21:17;;;;;;;22.27;15.07;;;;;;;;;;5071424;28;20405;-50
2021/09/24 00:23:43;;;;;;;17.10;13.70;;;;;;;;;;5071761;28;20449;-50
2021/09/24 00:26:09;;;;;;;25.83;16.50;;;;;;;;;;5071507;28;20789;-49
2021/09/24 00:28:35;;;;;;;24.77;15.23;;;;;;;;;;5071738;28;20411;-52
2021/09/24 00:31:01;;;;;;;20.27;15.80;;;;;;;;;;5071233;28;20940;-52
2021/09/24 00:33:27;;;;;;;20.00;14.50;;;;;;;;;;5071502;28;20767;-52
2021/09/24 00:35:57;;;;;;;23.73;15.03;;;;;;;;;;5071400;28;20400;-49
2021/09/24 00:38:23;;;;;;;26.50;15.37;;;;;;;;;;5071405;28;20467;-50
2021/09/24 00:40:50;;;;;;;25.60;18.40;;;;;;;;;;5071351;28;20835;-51
2021/09/24 00:43:16;;;;;;;23.50;17.00;;;;;;;;;;5071563;28;20400;-52
2021/09/24 00:45:42;;;;;;;22.97;16.77;;;;;;;;;;5071331;28;20415;-50
2021/09/24 00:48:08;;;;;;;27.10;18.77;;;;;;;;;;5071236;28;20776;-50
2021/09/24 00:50:34;;;;;;;27.43;17.63;;;;;;;;;;5071678;28;20493;-48
2021/09/24 00:53:00;;;;;;;27.23;18.07;;;;;;;;;;5070965;28;20482;-52
2021/09/24 00:55:27;;;;;;;26.67;18.37;;;;;;;;;;5071577;28;20401;-52
2021/09/24 00:57:53;;;;;;;26.00;18.83;;;;;;;;;;5071207;28;20939;-52
2021/09/24 01:00:19;;;;;;;32.63;20.57;;;;;;;;;;5071203;28;20740;-51
2021/09/24 01:02:46;;;;;;;33.93;20.13;;;;;;;;;;5070608;28;20435;-50
2021/09/24 01:05:12;;;;;;;27.07;19.23;;;;;;;;;;5074291;28;20768;-49
2021/09/24 01:07:40;;;;;;;29.27;20.00;;;;;;;;;;5074549;28;20431;-51
2021/09/24 01:10:07;;;;;;;35.83;20.70;;;;;;;;;;5074742;28;20896;-50
2021/09/24 01:12:34;;;;;;;30.87;22.03;;;;;;;;;;5074453;28;20433;-49
2021/09/24 01:15:00;;;;;;;32.00;22.63;;;;;;;;;;5074612;28;20416;-52
2021/09/24 01:17:26;;;;;;;33.73;20.83;;;;;;;;;;5074502;28;20929;-49
2021/09/24 01:19:52;;;;;;;35.43;22.30;;;;;;;;;;5074499;28;20399;-51
2021/09/24 01:22:18;;;;;;;34.20;22.20;;;;;;;;;;5074448;28;20878;-52
2021/09/24 01:24:44;;;;;;;32.53;22.60;;;;;;;;;;5074750;28;20409;-52
2021/09/24 01:27:10;;;;;;;32.43;22.27;;;;;;;;;;5074461;28;20921;-52
2021/09/24 01:29:36;;;;;;;35.40;24.03;;;;;;;;;;5074475;28;20414;-52
2021/09/24 01:32:02;;;;;;;33.87;22.63;;;;;;;;;;5074071;28;20949;-52
2021/09/24 01:34:28;;;;;;;41.10;24.30;;;;;;;;;;5074407;28;20430;-52
2021/09/24 01:36:54;;;;;;;33.90;22.23;;;;;;;;;;5074284;28;20424;-52
2021/09/24 01:39:20;;;;;;;35.60;23.73;;;;;;;;;;5074335;28;20375;-51
2021/09/24 01:41:47;;;;;;;38.73;24.50;;;;;;;;;;5074207;28;20450;-51
2021/09/24 01:44:14;;;;;;;35.07;23.30;;;;;;;;;;5074177;28;20518;-52
2021/09/24 01:46:40;;;;;;;37.07;25.00;;;;;;;;;;5074124;28;20438;-52
2021/09/24 01:49:07;;;;;;;41.73;25.93;;;;;;;;;;5074508;28;20498;-49
2021/09/24 01:51:37;;;;;;;41.93;25.33;;;;;;;;;;5073800;28;20513;-50
2021/09/24 01:54:03;;;;;;;47.73;27.47;;;;;;;;;;5074208;28;20421;-50
2021/09/24 01:56:30;;;;;;;46.63;27.10;;;;;;;;;;5073934;28;20891;-50
2021/09/24 01:58:56;;;;;;;40.07;26.37;;;;;;;;;;5073793;28;20878;-52
2021/09/24 02:01:22;;;;;;;56.93;28.10;;;;;;;;;;5073609;28;20379;-50
2021/09/24 02:03:48;;;;;;;45.90;27.03;;;;;;;;;;5073775;28;20408;-51
2021/09/24 02:06:14;;;;;;;49.80;29.63;;;;;;;;;;5073703;28;20424;-49
2021/09/24 02:08:40;;;;;;;46.00;27.87;;;;;;;;;;5073709;28;20898;-51
2021/09/24 02:11:07;;;;;;;56.10;30.20;;;;;;;;;;5073401;28;20384;-48
2021/09/24 02:13:33;;;;;;;53.13;29.93;;;;;;;;;;5073654;28;20770;-52
2021/09/24 02:16:00;;;;;;;53.77;29.90;;;;;;;;;;5072490;28;20462;-52
2021/09/24 02:18:26;;;;;;;57.43;30.70;;;;;;;;;;5073401;28;20837;-52
2021/09/24 02:20:52;;;;;;;55.80;31.87;;;;;;;;;;5073410;28;20405;-51
2021/09/24 02:23:18;;;;;;;57.77;31.43;;;;;;;;;;5073261;28;20394;-52
2021/09/24 02:25:44;;;;;;;55.97;33.10;;;;;;;;;;5073443;28;20375;-51
2021/09/24 02:28:09;;;;;;;57.20;31.30;;;;;;;;;;5073279;28;20383;-52
2021/09/24 02:30:35;;;;;;;57.37;32.10;;;;;;;;;;5073153;28;20730;-50
2021/09/24 02:33:01;;;;;;;55.50;30.13;;;;;;;;;;5072816;28;20460;-50
2021/09/24 02:35:27;;;;;;;54.87;32.33;;;;;;;;;;5073229;28;20396;-51
2021/09/24 02:37:53;;;;;;;49.67;30.93;;;;;;;;;;5073200;28;20780;-51
2021/09/24 02:40:19;;;;;;;56.43;31.43;;;;;;;;;;5073108;28;20414;-49
2021/09/24 02:42:46;;;;;;;47.53;29.57;;;;;;;;;;5073135;28;20401;-52
2021/09/24 02:45:12;;;;;;;47.30;30.20;;;;;;;;;;5072806;28;20448;-49
2021/09/24 02:47:38;;;;;;;49.03;28.50;;;;;;;;;;5073117;28;20434;-48
2021/09/24 02:50:05;;;;;;;58.13;30.23;;;;;;;;;;5072880;28;20806;-52
2021/09/24 02:52:31;;;;;;;45.57;29.30;;;;;;;;;;5072572;28;20452;-50
2021/09/24 02:54:57;;;;;;;48.27;27.70;;;;;;;;;;5072857;28;20523;-52
2021/09/24 02:57:23;;;;;;;48.33;28.63;;;;;;;;;;5072689;28;20416;-51
2021/09/24 02:59:49;;;;;;;48.67;28.27;;;;;;;;;;5072945;28;20389;-51
2021/09/24 03:02:15;;;;;;;42.70;26.17;;;;;;;;;;5072429;28;20407;-50
2021/09/24 03:04:41;;;;;;;45.07;27.70;;;;;;;;;;5072634;28;20412;-50
2021/09/24 03:07:07;;;;;;;47.23;27.50;;;;;;;;;;5072536;28;20391;-49
2021/09/24 03:09:33;;;;;;;44.40;27.37;;;;;;;;;;5072569;28;20892;-51
2021/09/24 03:11:59;;;;;;;44.77;28.00;;;;;;;;;;5072168;28;20419;-51
2021/09/24 03:14:25;;;;;;;41.70;26.10;;;;;;;;;;5072362;28;20407;-51
2021/09/24 03:16:51;;;;;;;43.00;27.43;;;;;;;;;;5072307;28;20927;-52
2021/09/24 03:19:20;;;;;;;46.77;28.57;;;;;;;;;;5072341;28;20374;-51
2021/09/24 03:21:47;;;;;;;47.03;29.30;;;;;;;;;;5072015;28;20405;-48
2021/09/24 03:24:13;;;;;;;48.57;27.73;;;;;;;;;;5072258;28;20466;-50
2021/09/24 03:26:39;;;;;;;52.53;30.50;;;;;;;;;;5072030;28;20435;-51
2021/09/24 03:29:05;;;;;;;53.07;30.47;;;;;;;;;;5072177;28;20390;-49
2021/09/24 03:31:31;;;;;;;58.30;34.47;;;;;;;;;;5071817;28;20429;-48
2021/09/24 03:33:57;;;;;;;48.13;30.97;;;;;;;;;;5072119;28;20402;-52
2021/09/24 03:36:23;;;;;;;48.50;30.20;;;;;;;;;;5072174;28;20906;-52
2021/09/24 03:38:49;;;;;;;57.90;31.30;;;;;;;;;;5072046;28;20400;-51
2021/09/24 03:41:15;;;;;;;62.30;34.00;;;;;;;;;;5071839;28;20796;-51
2021/09/24 03:43:41;;;;;;;58.97;35.00;;;;;;;;;;5072005;28;20434;-52
2021/09/24 03:46:07;;;;;;;59.70;33.70;;;;;;;;;;5071942;28;20420;-51
2021/09/24 03:48:33;;;;;;;59.87;33.40;;;;;;;;;;5072054;28;20499;-51
2021/09/24 03:50:59;;;;;;;64.93;34.83;;;;;;;;;;5071945;28;20400;-52
2021/09/24 03:53:24;;;;;;;67.50;36.40;;;;;;;;;;5071797;28;20425;-50
2021/09/24 03:55:53;;;;;;;70.97;37.43;;;;;;;;;;5071744;28;20405;-50
2021/09/24 03:58:20;;;;;;;62.73;35.40;;;;;;;;;;5071757;28;20407;-49
2021/09/24 04:00:46;;;;;;;52.30;33.77;;;;;;;;;;5071847;28;20390;-50
2021/09/24 04:03:12;;;;;;;61.83;35.10;;;;;;;;;;5071550;28;20380;-50
2021/09/24 04:05:37;;;;;;;61.63;37.17;;;;;;;;;;5071783;28;20471;-49
2021/09/24 04:08:04;;;;;;;57.03;33.07;;;;;;;;;;5071664;28;20428;-52
2021/09/24 04:10:29;;;;;;;57.23;36.50;;;;;;;;;;5071621;28;20383;-49
2021/09/24 04:12:55;;;;;;;63.23;35.60;;;;;;;;;;5071333;28;20806;-50
2021/09/24 04:15:22;;;;;;;63.80;37.57;;;;;;;;;;5071843;28;20423;-50
2021/09/24 04:17:47;;;;;;;58.30;36.30;;;;;;;;;;5071536;28;20418;-51
2021/09/24 04:20:13;;;;;;;64.27;37.23;;;;;;;;;;5071798;28;20814;-52
2021/09/24 04:22:39;;;;;;;63.40;36.57;;;;;;;;;;5071818;28;20852;-52
2021/09/24 04:25:06;;;;;;;79.87;39.07;;;;;;;;;;5071577;28;20375;-52
2021/09/24 04:27:32;;;;;;;59.73;36.27;;;;;;;;;;5071451;28;20424;-51
2021/09/24 04:29:58;;;;;;;66.93;36.17;;;;;;;;;;5071528;28;20800;-52
2021/09/24 04:32:24;;;;;;;60.90;37.30;;;;;;;;;;5071346;28;20437;-50
2021/09/24 04:34:50;;;;;;;70.23;35.80;;;;;;;;;;5071579;28;20405;-52
2021/09/24 04:37:16;;;;;;;66.43;37.30;;;;;;;;;;5071682;28;20763;-52
2021/09/24 04:39:42;;;;;;;75.87;40.43;;;;;;;;;;5074939;28;20484;-51
2021/09/24 04:42:08;;;;;;;70.17;36.60;;;;;;;;;;5075034;28;20375;-50
2021/09/24 04:44:34;;;;;;;70.20;38.00;;;;;;;;;;5075327;28;20820;-52
2021/09/24 04:47:00;;;;;;;72.80;37.20;;;;;;;;;;5075449;28;20429;-52
2021/09/24 04:49:26;;;;;;;65.83;36.50;;;;;;;;;;5075194;28;20404;-51
2021/09/24 04:51:52;;;;;;;69.70;35.97;;;;;;;;;;5074844;28;20481;-51
2021/09/24 04:54:18;;;;;;;69.23;37.43;;;;;;;;;;5075009;28;20470;-49
2021/09/24 04:56:44;;;;;;;62.10;35.40;;;;;;;;;;5075018;28;20429;-49
2021/09/24 04:59:10;;;;;;;73.93;37.67;;;;;;;;;;5074952;28;20450;-49
2021/09/24 05:01:36;;;;;;;75.30;36.87;;;;;;;;;;5074800;28;20516;-49
2021/09/24 05:04:02;;;;;;;83.13;41.30;;;;;;;;;;5075021;28;21124;-52
2021/09/24 05:06:28;;;;;;;72.40;38.90;;;;;;;;;;5074856;28;20966;-51
2021/09/24 05:08:54;;;;;;;70.07;40.20;;;;;;;;;;5074675;28;20425;-51
2021/09/24 05:11:21;;;;;;;79.90;39.77;;;;;;;;;;5074550;28;20912;-51
2021/09/24 05:13:46;;;;;;;80.40;40.57;;;;;;;;;;5074821;28;20432;-51
2021/09/24 05:16:15;;;;;;;71.17;37.70;;;;;;;;;;5074668;28;20871;-52
2021/09/24 05:18:41;;;;;;;88.80;42.63;;;;;;;;;;5074579;28;20420;-50
2021/09/24 05:21:07;;;;;;;70.67;37.23;;;;;;;;;;5074570;28;20955;-52
2021/09/24 05:23:33;;;;;;;73.73;39.50;;;;;;;;;;5074237;28;20455;-52
2021/09/24 05:25:59;;;;;;;78.67;40.07;;;;;;;;;;5074512;28;20890;-51
2021/09/24 05:28:25;;;;;;;79.87;39.53;;;;;;;;;;5074505;28;20741;-50
2021/09/24 05:30:51;;;;;;;66.10;37.57;;;;;;;;;;5074369;28;20433;-50
2021/09/24 05:33:16;;;;;;;71.23;35.43;;;;;;;;;;5074089;28;20455;-49
2021/09/24 05:35:43;;;;;;;69.30;35.70;;;;;;;;;;5074415;28;20463;-52
2021/09/24 05:38:09;;;;;;;77.20;37.00;;;;;;;;;;5074146;28;20415;-52
2021/09/24 05:40:35;;;;;;;79.30;35.70;;;;;;;;;;5075005;28;20377;-51
2021/09/24 05:43:01;;;;;;;65.10;34.67;;;;;;;;;;5074006;28;20891;-51
2021/09/24 05:45:27;;;;;;;65.57;34.90;;;;;;;;;;5074218;28;20387;-50
2021/09/24 05:47:53;;;;;;;68.90;35.50;;;;;;;;;;5074126;28;20404;-51
2021/09/24 05:50:19;;;;;;;65.30;34.90;;;;;;;;;;5074036;28;20923;-49
2021/09/24 05:52:49;;;;;;;64.53;33.40;;;;;;;;;;5073610;28;20463;-51
2021/09/24 05:55:16;;;;;;;81.50;36.00;;;;;;;;;;5074021;28;20739;-50
2021/09/24 05:57:42;;;;;;;71.27;35.50;;;;;;;;;;5073937;28;20387;-50
2021/09/24 06:00:09;;;;;;;79.43;36.07;;;;;;;;;;5073907;28;20392;-51
2021/09/24 06:02:35;;;;;;;70.33;34.23;;;;;;;;;;5073600;28;20769;-49
2021/09/24 06:05:01;;;;;;;71.10;37.40;;;;;;;;;;5073853;28;20407;-49
2021/09/24 06:07:27;;;;;;;66.37;34.60;;;;;;;;;;5073616;28;20925;-50
2021/09/24 06:09:53;;;;;;;70.83;34.83;;;;;;;;;;5073716;28;20379;-49
2021/09/24 06:12:19;;;;;;;76.27;35.57;;;;;;;;;;5073330;28;20481;-49
2021/09/24 06:14:45;;;;;;;67.73;34.30;;;;;;;;;;5073660;28;20394;-50
2021/09/24 06:17:11;;;;;;;70.00;34.70;;;;;;;;;;5073707;28;20528;-50
2021/09/24 06:19:38;;;;;;;73.53;35.47;;;;;;;;;;5073561;28;20484;-51
2021/09/24 06:22:05;;;;;;;70.13;34.73;;;;;;;;;;5073122;28;20464;-49
2021/09/24 06:24:31;;;;;;;74.63;35.40;;;;;;;;;;5073435;28;20390;-50
2021/09/24 06:26:57;;;;;;;70.17;35.50;;;;;;;;;;5073303;28;20416;-51
2021/09/24 06:29:23;;;;;;;69.93;34.67;;;;;;;;;;5073315;28;20466;-50
2021/09/24 06:31:49;;;;;;;74.50;35.07;;;;;;;;;;5073009;28;20476;-51
2021/09/24 06:34:15;;;;;;;75.97;35.20;;;;;;;;;;5073181;28;20403;-50
2021/09/24 06:36:41;;;;;;;68.50;33.77;;;;;;;;;;5073064;28;20968;-50
2021/09/24 06:39:07;;;;;;;78.20;35.63;;;;;;;;;;5073399;28;20506;-51
2021/09/24 06:41:33;;;;;;;76.07;33.90;;;;;;;;;;5072784;28;20376;-50
2021/09/24 06:43:59;;;;;;;69.13;33.27;;;;;;;;;;5073104;28;20412;-50
2021/09/24 06:46:25;;;;;;;73.37;33.80;;;;;;;;;;5072942;28;20424;-49
2021/09/24 06:48:51;;;;;;;73.73;33.53;;;;;;;;;;5072154;28;20379;-47
2021/09/24 06:51:17;;;;;;;78.63;35.47;;;;;;;;;;5061914;28;20483;-50
2021/09/24 06:53:43;;;;;;;78.27;34.43;;;;;;;;;;5072714;28;20489;-52
2021/09/24 06:56:10;;;;;;;86.53;33.27;;;;;;;;;;5072675;28;20398;-52
2021/09/24 06:58:37;;;;;;;84.83;34.07;;;;;;;;;;5072452;28;20425;-49
2021/09/24 07:01:02;;;;;;;71.20;32.40;;;;;;;;;;5072163;28;20367;-50
2021/09/24 07:03:28;;;;;;;67.70;33.10;;;;;;;;;;5072449;28;20892;-51
2021/09/24 07:05:54;;;;;;;73.37;32.50;;;;;;;;;;5072506;28;20401;-48
2021/09/24 07:08:20;;;;;;;72.67;31.73;;;;;;;;;;5072647;28;20411;-51
2021/09/24 07:10:46;;;;;;;66.80;30.20;;;;;;;;;;5072498;28;20381;-51
2021/09/24 07:13:12;;;;;;;63.27;31.93;;;;;;;;;;5072178;28;20550;-51
2021/09/24 07:15:43;;;;;;;65.37;30.03;;;;;;;;;;5072532;28;20404;-51
2021/09/24 07:18:09;;;;;;;51.90;28.10;;;;;;;;;;5072192;28;20450;-51
2021/09/24 07:20:35;;;;;;;56.80;26.90;;;;;;;;;;5072276;28;20962;-51
2021/09/24 07:23:01;;;;;;;57.10;29.80;;;;;;;;;;5072105;28;20418;-51
2021/09/24 07:25:27;;;;;;;58.90;29.00;;;;;;;;;;5072308;28;20417;-51
2021/09/24 07:27:53;;;;;;;55.73;28.97;;;;;;;;;;5072198;28;20414;-52
2021/09/24 07:30:19;;;;;;;58.97;28.70;;;;;;;;;;5072112;28;20490;-51
2021/09/24 07:32:45;;;;;;;51.10;28.10;;;;;;;;;;5071839;28;20445;-51
2021/09/24 07:35:11;;;;;;;57.90;29.77;;;;;;;;;;5072126;28;20401;-50
2021/09/24 07:37:37;;;;;;;57.37;28.10;;;;;;;;;;5072079;28;20524;-52
2021/09/24 07:40:04;;;;;;;58.67;28.73;;;;;;;;;;5072023;28;20407;-50
2021/09/24 07:42:30;;;;;;;53.43;27.20;;;;;;;;;;5071924;28;20404;-50
2021/09/24 07:44:56;;;;;;;54.87;28.90;;;;;;;;;;5071979;28;20526;-50
2021/09/24 07:47:21;;;;;;;60.30;29.17;;;;;;;;;;5071781;28;20446;-49
2021/09/24 07:49:47;;;;;;;52.80;28.27;;;;;;;;;;5071982;28;20379;-50
2021/09/24 07:52:14;;;;;;;52.40;28.53;;;;;;;;;;5071589;28;20510;-49
2021/09/24 07:54:40;;;;;;;59.67;31.30;;;;;;;;;;5071864;28;20461;-50
2021/09/24 07:57:06;;;;;;;54.80;29.03;;;;;;;;;;5071851;28;20420;-50
2021/09/24 07:59:32;;;;;;;52.23;27.00;;;;;;;;;;5071885;28;20397;-50
2021/09/24 08:01:58;;;;;;;48.27;27.37;;;;;;;;;;5071600;28;20853;-50
2021/09/24 08:04:24;;;;;;;48.83;27.10;;;;;;;;;;5071807;28;20421;-50
2021/09/24 08:06:50;;;;;;;47.50;27.30;;;;;;;;;;5071692;28;20464;-52
2021/09/24 08:09:16;;;;;;;46.97;25.37;;;;;;;;;;5071803;28;20412;-51
2021/09/24 08:11:42;;;;;;;44.13;27.23;;;;;;;;;;5071370;28;20834;-52
2021/09/24 08:14:08;;;;;;;43.80;28.10;;;;;;;;;;5073894;28;20498;-49
2021/09/24 08:16:34;;;;;;;49.00;28.00;;;;;;;;;;5075238;28;20384;-50
2021/09/24 08:19:00;;;;;;;43.23;27.03;;;;;;;;;;5075694;28;20871;-52
2021/09/24 08:21:26;;;;;;;42.97;25.20;;;;;;;;;;5075790;28;20421;-51
2021/09/24 08:23:53;;;;;;;39.10;24.07;;;;;;;;;;5075744;28;20368;-50
2021/09/24 08:26:23;;;;;;;38.10;23.00;;;;;;;;;;5075606;28;20457;-50
2021/09/24 08:28:49;;;;;;;36.00;21.17;;;;;;;;;;5075626;28;20774;-51
2021/09/24 08:31:15;;;;;;;33.73;22.23;;;;;;;;;;5075257;28;20860;-51
2021/09/24 08:33:42;;;;;;;36.50;21.87;;;;;;;;;;5075407;28;20437;-51
2021/09/24 08:36:08;;;;;;;40.20;23.93;;;;;;;;;;5075323;28;20473;-51
2021/09/24 08:38:34;;;;;;;37.10;21.40;;;;;;;;;;5075414;28;20843;-51
2021/09/24 08:41:00;;;;;;;36.33;21.03;;;;;;;;;;5075320;28;20409;-51
2021/09/24 08:43:27;;;;;;;35.90;22.07;;;;;;;;;;5075115;28;20478;-50
2021/09/24 08:45:53;;;;;;;34.67;20.27;;;;;;;;;;5075075;28;20437;-51
2021/09/24 08:48:20;;;;;;;35.67;21.90;;;;;;;;;;5075270;28;20416;-51
2021/09/24 08:50:46;;;;;;;36.93;21.53;;;;;;;;;;5075241;28;20488;-49
2021/09/24 08:53:14;;;;;;;39.00;21.37;;;;;;;;;;5074757;28;20453;-50
2021/09/24 08:55:40;;;;;;;44.70;22.37;;;;;;;;;;5075080;28;20435;-49
2021/09/24 08:58:06;;;;;;;41.33;21.20;;;;;;;;;;5075415;28;20422;-50
2021/09/24 09:00:33;;;;;;;32.57;20.20;;;;;;;;;;5074877;28;20402;-52
2021/09/24 09:03:10;;;;;;;36.23;21.77;;;;;;;;;;5074664;28;20380;-50
2021/09/24 09:05:50;;;;;;;37.03;20.83;;;;;;;;;;5074844;28;20475;-51
2021/09/24 09:08:23;;;;;;;37.30;22.73;;;;;;;;;;5074848;28;20417;-51
2021/09/24 09:10:56;;;;;;;31.67;20.33;;;;;;;;;;5073313;28;20389;-51
2021/09/24 09:13:22;;;;;;;43.37;22.10;;;;;;;;;;5074521;28;20845;-50
2021/09/24 09:15:56;;;;;;;34.07;20.70;;;;;;;;;;5074642;28;20376;-51
2021/09/24 09:18:22;;;;;;;35.07;22.63;;;;;;;;;;5074559;28;20946;-51
2021/09/24 09:20:49;;;;;;;32.27;21.63;;;;;;;;;;5074650;28;20418;-50
2021/09/24 09:23:15;;;;;;;41.43;23.53;;;;;;;;;;5074313;28;20384;-50
2021/09/24 09:25:42;;;;;;;39.83;23.63;;;;;;;;;;5074152;28;20475;-50
2021/09/24 09:28:16;;;;;;;37.40;22.27;;;;;;;;;;5074537;28;20634;-51
2021/09/24 09:30:45;;;;;;;41.00;20.70;;;;;;;;;;5074421;28;20582;-51
2021/09/24 09:33:16;;;;;;;39.33;22.50;;;;;;;;;;5074053;28;20432;-48
2021/09/24 09:35:44;;;;;;;40.10;21.80;;;;;;;;;;5074197;28;20445;-52
2021/09/24 09:38:22;;;;;;;38.33;21.47;;;;;;;;;;5074292;28;20402;-51
2021/09/24 09:41:02;;;;;;;44.63;22.23;;;;;;;;;;5074319;28;20368;-49
2021/09/24 09:43:34;;;;;;;36.83;22.57;;;;;;;;;;5074050;28;20398;-50
2021/09/24 09:46:01;;;;;;;30.47;20.53;;;;;;;;;;5074098;28;20397;-47
2021/09/24 09:48:27;;;;;;;33.80;19.60;;;;;;;;;;5074121;28;20397;-51
2021/09/24 09:50:53;;;;;;;36.03;20.40;;;;;;;;;;5074088;28;20471;-51
2021/09/24 09:53:20;;;;;;;37.63;20.70;;;;;;;;;;5073847;28;20459;-51
2021/09/24 09:55:51;;;;;;;33.30;20.10;;;;;;;;;;5073941;28;20408;-50
2021/09/24 09:58:17;;;;;;;33.20;17.97;;;;;;;;;;5074048;28;20986;-48
2021/09/24 10:00:58;;;;;;;26.80;17.40;;;;;;;;;;5073838;28;20409;-51
2021/09/24 10:03:38;;;;;;;34.33;19.67;;;;;;;;;;5073467;28;20385;-51
2021/09/24 10:06:18;;;;;;;32.90;20.13;;;;;;;;;;5073787;28;20888;-51
2021/09/24 10:08:44;;;;;;;32.60;19.00;;;;;;;;;;5073823;28;20402;-51
2021/09/24 10:14:05;;;;;;;37.57;22.10;;;;;;;;;;5230294;22;20493;-49
2021/09/24 10:16:33;;;;;;;36.30;21.50;;;;;;;;;;5033319;28;20401;-48
2021/09/24 10:18:59;;;;;;;34.87;21.40;;;;;;;;;;5033124;28;20423;-50
2021/09/24 10:21:25;;;;;;;35.73;19.90;;;;;;;;;;5033382;28;20774;-50
2021/09/24 10:23:51;;;;;;;36.20;20.13;;;;;;;;;;5033179;28;20510;-50
2021/09/24 10:26:24;;;;;;;45.47;20.47;;;;;;;;;;5034270;28;20380;-46
2021/09/24 10:28:55;;;;;;;32.40;19.67;;;;;;;;;;5033180;28;20463;-46
2021/09/24 10:31:21;;;;;;;33.93;19.03;;;;;;;;;;5032958;28;20396;-47
2021/09/24 10:33:49;;;;;;;29.37;18.30;;;;;;;;;;5031954;28;20432;-45
2021/09/24 10:36:33;;;;;;;33.70;18.17;;;;;;;;;;5032132;28;20409;-47
2021/09/24 10:38:59;;;;;;;32.63;17.60;;;;;;;;;;5033089;28;20394;-47
2021/09/24 10:41:25;;;;;;;29.87;17.07;;;;;;;;;;5032599;28;20431;-50
2021/09/24 10:43:52;;;;;;;27.90;16.87;;;;;;;;;;5032359;28;20421;-46
2021/09/24 10:46:25;;;;;;;31.43;18.70;;;;;;;;;;5033157;28;20484;-46
2021/09/24 10:49:22;;;;;;;30.73;16.73;;;;;;;;;;5033050;28;20464;-46
2021/09/24 10:51:57;;;;;;;30.50;16.50;;;;;;;;;;5032232;28;20469;-46
2021/09/24 10:54:25;;;;;;;25.50;15.70;;;;;;;;;;5032787;28;20421;-46
2021/09/24 10:57:11;;;;;;;29.37;16.40;;;;;;;;;;5032809;28;20427;-46
2021/09/24 10:59:37;;;;;;;22.43;15.73;;;;;;;;;;5032744;28;20893;-46
2021/09/24 11:02:22;;;;;;;22.97;15.30;;;;;;;;;;5032725;28;20488;-45
2021/09/24 11:04:50;;;;;;;22.50;13.43;;;;;;;;;;5032597;28;20412;-46
2021/09/24 11:07:29;;;;;;;17.17;13.17;;;;;;;;;;5032519;28;20937;-46
2021/09/24 11:09:55;;;;;;;18.97;12.43;;;;;;;;;;5032878;28;20756;-46
2021/09/24 11:12:21;;;;;;;19.23;12.17;;;;;;;;;;5032073;28;20459;-46
2021/09/24 11:14:47;;;;;;;20.27;12.87;;;;;;;;;;5032451;28;20448;-46
2021/09/24 11:17:33;;;;;;;18.67;12.43;;;;;;;;;;5032286;28;20831;-47
2021/09/24 11:19:59;;;;;;;19.23;11.10;;;;;;;;;;5032459;28;20531;-46
2021/09/24 11:22:38;;;;;;;20.97;13.10;;;;;;;;;;5032114;28;20456;-46
2021/09/24 11:25:07;;;;;;;16.47;11.47;;;;;;;;;;5032411;28;20383;-46
2021/09/24 11:27:36;;;;;;;11.57;10.37;;;;;;;;;;5032188;28;20532;-46
2021/09/24 11:30:02;;;;;;;13.30;10.60;;;;;;;;;;5032421;28;20478;-47
2021/09/24 11:32:48;;;;;;;17.57;12.53;;;;;;;;;;5031747;28;20481;-46
2021/09/24 11:35:16;;;;;;;13.97;10.57;;;;;;;;;;5032358;28;20445;-47
2021/09/24 11:37:46;;;;;;;15.47;9.80;;;;;;;;;;5032083;28;20408;-46
2021/09/24 11:40:12;;;;;;;19.83;11.43;;;;;;;;;;5031955;28;20407;-48
2021/09/24 11:42:39;;;;;;;13.90;9.73;;;;;;;;;;5031727;28;20424;-48
2021/09/24 11:45:08;;;;;;;19.73;11.83;;;;;;;;;;5032045;28;20419;-46
2021/09/24 11:47:40;;;;;;;14.97;11.07;;;;;;;;;;5031880;28;20402;-46
2021/09/24 11:50:08;;;;;;;16.70;11.57;;;;;;;;;;5032019;28;20428;-47
2021/09/24 11:52:34;;;;;;;14.27;9.50;;;;;;;;;;5031561;28;20433;-46
2021/09/24 11:55:23;;;;;;;12.93;9.50;;;;;;;;;;5031805;28;20411;-49
2021/09/24 11:58:02;;;;;;;14.17;9.53;;;;;;;;;;5031400;28;20781;-46
2021/09/24 12:00:29;;;;;;;13.63;9.20;;;;;;;;;;5031803;28;20399;-47
2021/09/24 12:03:07;;;;;;;11.90;8.40;;;;;;;;;;5031514;28;20502;-46
2021/09/24 12:05:33;;;;;;;15.20;10.40;;;;;;;;;;5031799;28;20753;-46
2021/09/24 12:07:59;;;;;;;12.20;8.73;;;;;;;;;;5032171;28;20936;-46
2021/09/24 12:10:28;;;;;;;12.53;9.10;;;;;;;;;;5031562;28;20411;-46
2021/09/24 12:13:14;;;;;;;10.50;9.13;;;;;;;;;;5029411;28;20506;-48
2021/09/24 12:15:51;;;;;;;14.70;9.97;;;;;;;;;;5029619;28;20426;-46
2021/09/24 12:18:17;;;;;;;18.10;10.60;;;;;;;;;;5029943;28;20416;-46
2021/09/24 12:20:44;;;;;;;13.37;9.23;;;;;;;;;;5031041;28;20402;-46
2021/09/24 12:23:10;;;;;;;15.33;10.57;;;;;;;;;;5031562;28;20427;-46
2021/09/24 12:25:36;;;;;;;13.80;9.80;;;;;;;;;;5031408;28;20407;-46
2021/09/24 12:28:09;;;;;;;14.97;10.40;;;;;;;;;;5031715;28;20453;-46
2021/09/24 12:30:42;;;;;;;14.10;10.93;;;;;;;;;;5031578;28;20410;-47
2021/09/24 12:33:12;;;;;;;12.80;10.67;;;;;;;;;;5031176;28;20466;-47
2021/09/24 12:35:38;;;;;;;12.07;9.60;;;;;;;;;;5031587;28;20443;-47
2021/09/24 12:38:04;;;;;;;14.60;9.43;;;;;;;;;;5031662;28;20401;-47
2021/09/24 12:40:30;;;;;;;13.17;10.87;;;;;;;;;;5031368;28;20415;-48
2021/09/24 12:42:57;;;;;;;13.47;9.57;;;;;;;;;;5031178;28;20574;-46
2021/09/24 12:45:25;;;;;;;15.10;10.67;;;;;;;;;;5031676;28;20409;-48
2021/09/24 12:47:51;;;;;;;13.50;9.53;;;;;;;;;;5028227;28;20405;-46
2021/09/24 12:50:17;;;;;;;15.87;9.37;;;;;;;;;;5031516;28;20818;-47
2021/09/24 12:52:43;;;;;;;11.60;9.07;;;;;;;;;;5031066;28;20492;-47
2021/09/24 12:55:10;;;;;;;10.70;8.13;;;;;;;;;;5028415;28;20772;-47
2021/09/24 12:57:37;;;;;;;13.23;9.37;;;;;;;;;;5031136;28;20412;-47
2021/09/24 13:00:10;;;;;;;11.10;10.00;;;;;;;;;;5033123;28;20421;-46
2021/09/24 13:02:37;;;;;;;18.30;10.60;;;;;;;;;;5023167;28;20457;-46
2021/09/24 13:05:04;;;;;;;10.83;9.07;;;;;;;;;;5028195;28;20417;-46
2021/09/24 13:07:31;;;;;;;10.77;7.60;;;;;;;;;;5016548;28;20441;-47
2021/09/24 13:10:04;;;;;;;13.83;9.70;;;;;;;;;;5015212;28;20436;-46
2021/09/24 13:12:31;;;;;;;11.70;8.60;;;;;;;;;;5016947;28;20464;-48
2021/09/24 13:14:57;;;;;;;8.93;7.90;;;;;;;;;;5034739;28;20429;-47
2021/09/24 13:17:23;;;;;;;11.30;7.90;;;;;;;;;;5034781;28;20810;-46
2021/09/24 13:19:49;;;;;;;7.60;6.87;;;;;;;;;;5034052;28;20413;-46
2021/09/24 13:22:15;;;;;;;15.53;8.70;;;;;;;;;;5034218;28;20564;-47
2021/09/24 13:24:41;;;;;;;9.60;7.80;;;;;;;;;;5034681;28;20409;-47
2021/09/24 13:27:07;;;;;;;9.63;7.87;;;;;;;;;;5034622;28;20779;-49
2021/09/24 13:29:33;;;;;;;13.33;8.30;;;;;;;;;;5034596;28;20408;-48
2021/09/24 13:31:59;;;;;;;11.30;8.50;;;;;;;;;;5033802;28;20572;-46
2021/09/24 13:34:26;;;;;;;12.07;7.90;;;;;;;;;;5034487;28;20452;-46
2021/09/24 13:36:53;;;;;;;8.83;7.40;;;;;;;;;;5034317;28;20404;-47
2021/09/24 13:39:19;;;;;;;16.80;7.73;;;;;;;;;;5034357;28;20905;-46
2021/09/24 13:41:45;;;;;;;9.27;6.20;;;;;;;;;;5034053;28;20494;-47
2021/09/24 13:44:11;;;;;;;14.07;8.10;;;;;;;;;;5034211;28;20398;-47
2021/09/24 13:46:37;;;;;;;9.03;7.43;;;;;;;;;;5034261;28;20469;-47
2021/09/24 13:49:03;;;;;;;15.13;8.47;;;;;;;;;;5034208;28;20404;-47
2021/09/24 13:51:29;;;;;;;7.70;6.90;;;;;;;;;;5033792;28;20888;-49
2021/09/24 13:53:54;;;;;;;12.10;7.53;;;;;;;;;;5033778;28;20450;-47
2021/09/24 13:56:21;;;;;;;9.83;6.90;;;;;;;;;;5034188;28;20425;-46
2021/09/24 13:58:47;;;;;;;8.67;6.70;;;;;;;;;;5034093;28;20450;-46
2021/09/24 14:01:13;;;;;;;11.13;6.50;;;;;;;;;;5033931;28;20960;-46
2021/09/24 14:03:38;;;;;;;16.13;6.63;;;;;;;;;;5033657;28;20400;-46
2021/09/24 14:06:06;;;;;;;13.40;6.13;;;;;;;;;;5033751;28;20742;-46
2021/09/24 14:08:32;;;;;;;10.30;6.83;;;;;;;;;;5033735;28;20391;-48
2021/09/24 14:10:58;;;;;;;7.97;5.63;;;;;;;;;;5032522;28;20395;-46
2021/09/24 14:13:24;;;;;;;12.17;6.80;;;;;;;;;;5033494;28;20521;-47
2021/09/24 14:15:53;;;;;;;11.53;6.47;;;;;;;;;;5033479;28;20471;-46
2021/09/24 14:18:19;;;;;;;9.20;6.80;;;;;;;;;;5033613;28;20857;-47
2021/09/24 14:20:45;;;;;;;14.70;6.43;;;;;;;;;;5033389;28;20394;-50
2021/09/24 14:23:11;;;;;;;9.40;5.83;;;;;;;;;;5033242;28;20510;-49